Time;durP1;ratioP1;P1;durP2;ratioP2;P2;SDS_P1;SDS_P2;PMS_P1;PMS_P2;Temp;Humidity;BMP_temperature;BMP_pressure;BME280_temperature;BME280_humidity;BME280_pressure;Samples;Min_cycle;Max_cycle;Signal;HPM_P1;HPM_P2
2022/08/22 00:01:15;;;;;;;1.10;0.10;;;27.70;43.30;;;;;;5048034;28;20037;-48
2022/08/22 00:03:50;;;;;;;3.20;0.10;;;27.60;43.20;;;;;;5047746;28;20055;-50
2022/08/22 00:06:23;;;;;;;0.87;0.10;;;27.60;43.30;;;;;;5047797;28;20119;-49
2022/08/22 00:09:00;;;;;;;1.50;0.30;;;27.60;43.30;;;;;;5047721;28;20816;-50
2022/08/22 00:11:35;;;;;;;3.22;0.30;;;27.70;43.40;;;;;;5047392;28;20143;-50
2022/08/22 00:14:10;;;;;;;3.33;0.73;;;27.70;43.40;;;;;;5047909;28;20126;-49
2022/08/22 00:16:44;;;;;;;1.80;0.10;;;27.60;43.30;;;;;;5048004;28;20049;-52
2022/08/22 00:19:22;;;;;;;0.20;0.10;;;27.60;43.30;;;;;;5047442;28;20045;-50
2022/08/22 00:21:57;;;;;;;1.95;1.27;;;27.60;43.30;;;;;;5047593;28;20045;-52
2022/08/22 00:24:30;;;;;;;0.65;0.63;;;27.60;43.30;;;;;;5047706;28;20041;-48
2022/08/22 00:27:03;;;;;;;0.10;0.10;;;27.60;43.40;;;;;;5046005;28;20076;-51
2022/08/22 00:29:44;;;;;;;1.42;0.10;;;27.60;43.40;;;;;;5047687;28;20547;-53
2022/08/22 00:32:19;;;;;;;2.40;0.10;;;27.60;43.30;;;;;;5047688;28;20039;-50
2022/08/22 00:34:56;;;;;;;1.30;0.20;;;27.60;43.40;;;;;;5047548;28;20497;-52
2022/08/22 00:37:30;;;;;;;1.13;0.20;;;27.60;43.40;;;;;;5047571;28;20127;-49
2022/08/22 00:40:02;;;;;;;0.10;0.10;;;27.50;43.30;;;;;;5047455;28;20045;-49
2022/08/22 00:42:53;;;;;;;2.90;0.20;;;27.50;43.30;;;;;;5048991;28;20044;-50
2022/08/22 00:45:58;;;;;;;1.40;0.10;;;27.60;43.40;;;;;;5067249;28;20076;-52
2022/08/22 00:48:43;;;;;;;1.20;0.15;;;27.50;43.30;;;;;;5067106;28;20056;-51
2022/08/22 00:51:36;;;;;;;1.17;0.10;;;27.50;43.40;;;;;;5050047;28;20083;-48
2022/08/22 00:54:09;;;;;;;2.20;0.15;;;27.50;43.40;;;;;;5045480;28;20089;-53
2022/08/22 00:56:57;;;;;;;0.60;0.10;;;27.50;43.40;;;;;;5047070;28;20068;-49
2022/08/22 00:59:41;;;;;;;1.88;0.10;;;27.50;43.40;;;;;;5047440;28;20049;-50
2022/08/22 01:02:18;;;;;;;2.38;0.10;;;27.50;43.50;;;;;;5047279;28;20102;-51
2022/08/22 01:04:58;;;;;;;1.30;0.20;;;27.50;44.10;;;;;;5048317;28;20064;-53
2022/08/22 01:07:42;;;;;;;1.75;0.10;;;27.50;43.50;;;;;;5051310;28;20063;-52
2022/08/22 01:10:27;;;;;;;4.63;0.38;;;27.40;43.40;;;;;;5048218;28;20048;-52
2022/08/22 01:13:15;;;;;;;0.82;0.10;;;27.40;44.00;;;;;;5051174;28;20048;-49
2022/08/22 01:15:43;;;;;;;4.35;0.20;;;27.40;43.40;;;;;;5051064;28;20048;-52
2022/08/22 01:18:43;;;;;;;2.42;0.10;;;27.40;43.40;;;;;;5051102;28;20592;-50
2022/08/22 01:21:41;;;;;;;0.40;0.28;;;27.40;43.40;;;;;;5050917;28;20136;-49
2022/08/22 01:28:17;;;;;;;0.30;0.10;;;27.40;43.40;;;;;;5048330;28;20049;-50
2022/08/22 01:31:07;;;;;;;0.32;0.10;;;27.40;43.40;;;;;;5008503;28;20176;-53
2022/08/22 01:34:14;;;;;;;0.20;0.10;;;27.30;43.30;;;;;;4996275;28;20589;-50
2022/08/22 01:37:17;;;;;;;0.32;0.08;;;27.30;43.30;;;;;;5008418;28;20891;-52
2022/08/22 01:40:11;;;;;;;0.38;0.10;;;27.30;43.40;;;;;;4998038;28;20045;-52
2022/08/22 01:43:06;;;;;;;0.55;0.10;;;27.30;43.40;;;;;;5008323;28;20046;-51
2022/08/22 01:45:57;;;;;;;0.65;0.10;;;27.30;43.40;;;;;;5002580;28;20493;-49
2022/08/22 01:48:33;;;;;;;1.75;0.10;;;27.30;43.30;;;;;;5007987;28;20049;-50
2022/08/22 01:51:13;;;;;;;2.47;0.10;;;27.20;43.30;;;;;;5007846;28;20320;-50
2022/08/22 01:53:49;;;;;;;2.58;0.20;;;27.30;43.30;;;;;;4988426;28;20070;-50
2022/08/22 01:56:19;;;;;;;0.73;0.73;;;27.30;43.40;;;;;;4989018;28;20049;-51
2022/08/22 01:58:57;;;;;;;3.13;0.30;;;27.20;43.30;;;;;;5008051;28;20049;-53
2022/08/22 02:01:37;;;;;;;0.55;0.10;;;27.20;43.20;;;;;;5007910;28;20530;-49
2022/08/22 02:04:09;;;;;;;0.40;0.20;;;27.20;43.20;;;;;;5007640;28;20132;-50
2022/08/22 02:06:44;;;;;;;0.35;0.10;;;27.20;43.20;;;;;;5000104;28;20487;-50
2022/08/22 02:09:26;;;;;;;0.95;0.13;;;27.20;43.20;;;;;;5049741;28;20073;-49
2022/08/22 02:11:57;;;;;;;1.10;0.10;;;27.20;43.20;;;;;;5050114;28;20102;-51
2022/08/22 02:14:37;;;;;;;1.73;0.40;;;27.20;43.80;;;;;;5049783;28;20481;-53
2022/08/22 02:17:14;;;;;;;1.27;0.28;;;27.20;43.10;;;;;;5049948;28;20412;-49
2022/08/22 02:19:49;;;;;;;0.85;0.15;;;27.20;43.20;;;;;;5049714;28;20049;-52
2022/08/22 02:22:33;;;;;;;0.75;0.10;;;27.20;43.10;;;;;;5049534;28;20144;-53
2022/08/22 02:25:06;;;;;;;0.40;0.10;;;27.20;43.10;;;;;;5049735;28;20521;-52
2022/08/22 02:27:43;;;;;;;3.08;0.85;;;27.20;43.10;;;;;;5048447;28;20500;-52
2022/08/22 02:30:14;;;;;;;3.67;0.10;;;27.20;43.10;;;;;;5049748;28;20124;-50
2022/08/22 02:32:54;;;;;;;1.25;0.10;;;27.10;43.10;;;;;;5049709;28;20037;-55
2022/08/22 02:35:29;;;;;;;0.15;0.10;;;27.10;43.00;;;;;;5049378;28;20123;-49
2022/08/22 02:38:07;;;;;;;;;;;27.10;43.00;;;;;;5049693;28;20041;-51
2022/08/22 02:40:40;;;;;;;0.55;0.10;;;27.10;43.10;;;;;;5049119;28;19931;-51
2022/08/22 02:43:17;;;;;;;0.88;0.10;;;27.10;43.20;;;;;;5049300;28;20067;-51
2022/08/22 02:45:51;;;;;;;0.93;0.28;;;27.10;43.10;;;;;;5049029;28;20073;-52
2022/08/22 02:48:31;;;;;;;0.43;0.10;;;27.10;43.10;;;;;;5049344;28;20047;-48
2022/08/22 02:51:04;;;;;;;0.88;0.43;;;27.10;43.00;;;;;;5048778;28;20056;-48
2022/08/22 02:53:39;;;;;;;1.65;0.20;;;27.10;43.00;;;;;;5064259;28;20036;-50
2022/08/22 02:56:13;;;;;;;0.88;0.10;;;27.10;43.00;;;;;;5064233;28;20497;-54
2022/08/22 02:58:48;;;;;;;1.27;0.10;;;27.10;43.00;;;;;;5049469;28;20742;-55
2022/08/22 03:01:35;;;;;;;2.50;0.10;;;27.10;43.00;;;;;;5049315;28;20052;-53
2022/08/22 03:04:31;;;;;;;2.05;0.10;;;27.10;43.00;;;;;;5048806;28;20049;-54
2022/08/22 03:07:11;;;;;;;0.57;0.57;;;27.00;43.00;;;;;;5032059;28;20076;-54
2022/08/22 03:09:45;;;;;;;0.43;0.10;;;27.00;43.00;;;;;;5050370;28;20413;-51
2022/08/22 03:12:20;;;;;;;1.00;0.10;;;27.00;43.00;;;;;;5028770;28;20148;-50
2022/08/22 03:14:56;;;;;;;0.77;0.60;;;27.00;43.10;;;;;;5036552;28;20111;-50
2022/08/22 03:17:25;;;;;;;;;;;27.00;43.10;;;;;;5048776;28;20055;-48
2022/08/22 03:19:56;;;;;;;1.75;0.10;;;26.90;43.10;;;;;;5048283;28;20483;-50
2022/08/22 03:22:32;;;;;;;0.75;0.22;;;26.90;43.10;;;;;;5048441;28;20120;-48
2022/08/22 03:25:09;;;;;;;0.35;0.10;;;26.90;43.10;;;;;;5048273;28;20136;-53
2022/08/22 03:27:43;;;;;;;1.00;0.10;;;26.90;43.10;;;;;;5047921;28;20125;-50
2022/08/22 03:30:15;;;;;;;2.50;0.40;;;26.90;43.20;;;;;;5048639;28;20573;-50
2022/08/22 03:32:55;;;;;;;0.30;0.10;;;27.00;43.20;;;;;;5048669;28;20045;-49
2022/08/22 03:35:30;;;;;;;4.32;0.70;;;26.90;43.70;;;;;;5048322;28;20515;-52
2022/08/22 03:38:12;;;;;;;0.38;0.10;;;26.90;43.10;;;;;;5048435;28;20072;-50
2022/08/22 03:40:57;;;;;;;0.20;0.20;;;27.00;43.20;;;;;;5048363;28;20059;-53
2022/08/22 03:43:57;;;;;;;0.30;0.30;;;26.90;43.10;;;;;;5048168;28;20136;-52
2022/08/22 03:46:53;;;;;;;2.00;0.13;;;26.90;43.10;;;;;;5048141;28;20041;-49
2022/08/22 03:50:12;;;;;;;1.90;0.10;;;26.90;43.20;;;;;;5047812;28;20048;-50
2022/08/22 03:53:21;;;;;;;3.88;0.30;;;26.90;43.10;;;;;;5047791;28;20183;-50
2022/08/22 03:56:28;;;;;;;3.20;0.10;;;26.90;43.20;;;;;;5047899;28;20041;-51
2022/08/22 03:59:15;;;;;;;0.98;0.73;;;26.80;43.20;;;;;;5025241;28;20046;-50
2022/08/22 04:02:20;;;;;;;0.68;0.20;;;26.90;43.30;;;;;;5023005;28;20060;-51
2022/08/22 04:05:17;;;;;;;2.25;0.17;;;26.80;43.20;;;;;;5022239;28;20041;-52
2022/08/22 04:08:09;;;;;;;0.50;0.50;;;26.80;43.30;;;;;;5025314;28;20053;-52
2022/08/22 04:10:57;;;;;;;1.48;0.10;;;26.80;43.20;;;;;;5018184;28;20576;-52
2022/08/22 04:14:23;;;;;;;0.85;0.10;;;26.80;43.30;;;;;;5005641;28;20069;-50
2022/08/22 04:17:26;;;;;;;0.65;0.20;;;26.80;43.20;;;;;;4890382;29;20055;-53
2022/08/22 04:20:28;;;;;;;2.85;0.10;;;26.80;43.30;;;;;;4890075;29;20054;-50
2022/08/22 04:23:31;;;;;;;3.85;0.10;;;26.80;43.30;;;;;;4871341;29;20676;-52
2022/08/22 04:26:03;;;;;;;0.20;0.10;;;26.80;43.40;;;;;;4871416;29;20063;-48
2022/08/22 04:28:37;;;;;;;2.80;1.25;;;26.70;43.30;;;;;;4871138;29;20164;-49
2022/08/22 04:31:10;;;;;;;1.15;0.10;;;26.80;43.40;;;;;;4871372;29;20649;-50
2022/08/22 04:33:43;;;;;;;1.30;0.20;;;26.70;43.30;;;;;;4870686;29;20057;-49
2022/08/22 04:36:19;;;;;;;1.45;0.35;;;26.70;43.30;;;;;;4935031;28;20047;-50
2022/08/22 04:38:50;;;;;;;0.95;0.10;;;26.80;43.40;;;;;;4966107;28;20085;-49
2022/08/22 04:41:23;;;;;;;0.40;0.10;;;26.70;43.30;;;;;;4943580;29;20063;-49
2022/08/22 04:43:56;;;;;;;0.93;0.10;;;26.70;43.30;;;;;;4950571;29;20121;-49
2022/08/22 04:46:27;;;;;;;2.08;0.20;;;26.70;43.30;;;;;;4950783;29;20047;-49
2022/08/22 04:49:01;;;;;;;1.83;0.30;;;26.70;43.30;;;;;;4951035;29;20051;-50
2022/08/22 04:51:34;;;;;;;0.22;0.20;;;26.70;43.40;;;;;;4996277;28;20137;-50
2022/08/22 04:54:19;;;;;;;0.20;0.10;;;26.70;43.40;;;;;;5071455;28;20646;-50
2022/08/22 04:56:59;;;;;;;0.73;0.10;;;26.70;43.30;;;;;;5071440;28;20128;-51
2022/08/22 04:59:30;;;;;;;0.65;0.10;;;26.70;43.30;;;;;;5071328;28;20123;-49
2022/08/22 05:01:59;;;;;;;0.68;0.10;;;26.70;43.40;;;;;;5066556;28;20037;-49
2022/08/22 05:04:29;;;;;;;1.55;0.10;;;26.70;43.40;;;;;;5051432;28;20411;-52
2022/08/22 05:07:04;;;;;;;1.45;0.15;;;26.70;43.40;;;;;;5051343;28;20065;-50
2022/08/22 05:09:36;;;;;;;1.27;0.22;;;26.70;43.40;;;;;;5051298;28;20052;-49
2022/08/22 05:12:08;;;;;;;2.05;0.63;;;26.60;43.40;;;;;;5051180;28;20045;-50
2022/08/22 05:14:39;;;;;;;1.65;0.10;;;26.60;43.40;;;;;;5051072;28;20052;-50
2022/08/22 05:17:08;;;;;;;1.35;0.10;;;26.70;43.50;;;;;;5050840;28;20045;-52
2022/08/22 05:19:39;;;;;;;0.60;0.10;;;26.70;43.40;;;;;;5051226;28;20059;-52
2022/08/22 05:22:14;;;;;;;1.50;0.15;;;26.70;43.40;;;;;;5050322;28;20126;-50
2022/08/22 05:24:45;;;;;;;0.90;0.10;;;26.70;43.50;;;;;;5050820;28;20053;-54
2022/08/22 05:27:16;;;;;;;2.25;0.10;;;26.60;43.40;;;;;;5050842;28;20040;-55
2022/08/22 05:29:48;;;;;;;1.40;0.15;;;26.60;43.40;;;;;;5050880;28;20041;-54
2022/08/22 05:32:23;;;;;;;0.35;0.10;;;26.60;43.40;;;;;;5050571;28;20110;-54
2022/08/22 05:34:51;;;;;;;0.68;0.45;;;26.70;43.50;;;;;;5050614;28;20095;-54
2022/08/22 05:37:24;;;;;;;1.23;0.20;;;26.60;43.50;;;;;;5050569;28;20127;-53
2022/08/22 05:39:56;;;;;;;0.57;0.10;;;26.70;43.50;;;;;;5050494;28;20069;-50
2022/08/22 05:42:28;;;;;;;0.73;0.10;;;26.60;43.40;;;;;;5050111;28;20065;-50
2022/08/22 05:44:56;;;;;;;1.33;0.10;;;26.70;43.50;;;;;;5050023;28;20842;-53
2022/08/22 05:47:26;;;;;;;2.00;0.10;;;26.70;44.10;;;;;;5050466;28;20494;-51
2022/08/22 05:50:00;;;;;;;2.30;0.10;;;26.70;43.50;;;;;;5050145;28;20501;-50
2022/08/22 05:52:44;;;;;;;1.25;0.10;;;26.70;43.50;;;;;;5050139;28;20037;-52
2022/08/22 05:55:22;;;;;;;4.80;0.10;;;26.70;43.50;;;;;;5050002;28;20132;-51
2022/08/22 05:57:57;;;;;;;0.65;0.22;;;26.70;43.50;;;;;;5050031;28;20686;-51
2022/08/22 06:00:31;;;;;;;2.30;0.32;;;26.70;43.50;;;;;;5049620;28;20168;-49
2022/08/22 06:03:11;;;;;;;1.00;0.70;;;26.60;43.40;;;;;;5049944;28;20041;-51
2022/08/22 06:05:42;;;;;;;0.85;0.30;;;26.70;43.50;;;;;;5049850;28;20552;-53
2022/08/22 06:08:20;;;;;;;2.28;0.32;;;26.70;43.50;;;;;;5050061;28;20147;-51
2022/08/22 06:10:50;;;;;;;1.90;0.40;;;26.70;43.50;;;;;;5049644;28;20071;-51
2022/08/22 06:13:22;;;;;;;1.88;0.20;;;26.70;43.50;;;;;;5041829;28;20045;-54
2022/08/22 06:15:54;;;;;;;0.68;0.10;;;26.70;43.50;;;;;;5061944;28;20067;-54
2022/08/22 06:18:25;;;;;;;0.35;0.10;;;26.70;43.50;;;;;;5047733;28;20158;-51
2022/08/22 06:20:55;;;;;;;3.30;0.47;;;26.70;43.40;;;;;;5050024;28;20041;-53
2022/08/22 06:23:28;;;;;;;0.85;0.30;;;26.70;43.40;;;;;;5062171;28;20040;-52
2022/08/22 06:25:59;;;;;;;0.75;0.28;;;26.70;43.40;;;;;;5068517;28;20047;-50
2022/08/22 06:28:31;;;;;;;1.77;0.30;;;26.70;43.40;;;;;;5049218;28;20510;-50
2022/08/22 06:31:01;;;;;;;2.17;0.13;;;26.70;43.40;;;;;;5049872;28;20053;-49
2022/08/22 06:33:30;;;;;;;1.83;1.52;;;26.70;43.30;;;;;;5049599;28;20076;-52
2022/08/22 06:39:15;;;;;;;0.40;0.25;;;26.70;43.20;;;;;;4987491;28;20046;-52
2022/08/22 06:41:49;;;;;;;0.65;0.20;;;26.80;43.20;;;;;;4971480;28;20110;-53
2022/08/22 06:44:21;;;;;;;3.45;0.20;;;26.80;43.20;;;;;;4967367;28;20059;-50
2022/08/22 06:46:50;;;;;;;0.40;0.10;;;26.80;43.20;;;;;;4968396;28;20043;-50
2022/08/22 06:49:19;;;;;;;1.05;0.55;;;26.80;43.30;;;;;;4968330;28;20050;-50
2022/08/22 06:51:48;;;;;;;2.42;0.30;;;26.80;43.20;;;;;;4968129;28;20143;-50
2022/08/22 06:54:19;;;;;;;2.40;0.38;;;26.80;43.10;;;;;;4970665;28;20085;-49
2022/08/22 06:56:49;;;;;;;1.95;0.25;;;26.80;43.10;;;;;;4986883;28;20058;-53
2022/08/22 06:59:18;;;;;;;2.70;0.20;;;26.80;43.00;;;;;;4984070;28;20050;-55
2022/08/22 07:01:50;;;;;;;2.47;0.30;;;26.90;43.00;;;;;;4986736;28;20061;-51
2022/08/22 07:04:18;;;;;;;2.05;0.20;;;26.90;43.00;;;;;;4987493;28;20466;-50
2022/08/22 07:06:49;;;;;;;1.40;0.40;;;26.90;42.90;;;;;;4988255;28;20062;-51
2022/08/22 07:09:23;;;;;;;2.47;0.10;;;26.90;42.90;;;;;;4990369;28;20037;-51
2022/08/22 07:11:52;;;;;;;1.60;0.20;;;26.90;42.90;;;;;;5047589;28;20044;-50
2022/08/22 07:14:29;;;;;;;2.75;0.17;;;26.90;42.90;;;;;;5048404;28;20049;-49
2022/08/22 07:16:58;;;;;;;3.45;0.85;;;27.00;42.90;;;;;;5048681;28;20139;-49
2022/08/22 07:19:28;;;;;;;3.33;0.20;;;26.90;42.80;;;;;;5048790;28;20152;-50
2022/08/22 07:21:56;;;;;;;0.68;0.20;;;27.00;42.90;;;;;;5048399;28;20559;-50
2022/08/22 07:24:27;;;;;;;1.15;0.28;;;27.00;43.00;;;;;;5067603;28;20440;-49
2022/08/22 07:27:13;;;;;;;1.58;0.52;;;27.00;42.90;;;;;;5067810;28;20072;-49
2022/08/22 07:29:49;;;;;;;1.52;0.35;;;27.10;43.00;;;;;;5050229;28;20041;-48
2022/08/22 07:32:22;;;;;;;0.90;0.20;;;27.10;43.00;;;;;;5068238;28;20119;-48
2022/08/22 07:35:08;;;;;;;1.67;0.20;;;27.10;42.90;;;;;;5068066;28;20068;-48
2022/08/22 07:37:58;;;;;;;1.75;0.30;;;27.10;42.90;;;;;;5068348;28;20076;-48
2022/08/22 07:40:35;;;;;;;1.33;0.20;;;27.10;42.90;;;;;;5068095;28;20148;-52
2022/08/22 07:43:10;;;;;;;2.78;0.25;;;27.10;42.90;;;;;;5076098;28;20506;-53
2022/08/22 07:45:43;;;;;;;2.45;0.38;;;27.10;42.80;;;;;;5087786;28;20084;-48
2022/08/22 07:48:17;;;;;;;0.93;0.15;;;27.10;42.80;;;;;;5088034;28;20048;-50
2022/08/22 07:50:56;;;;;;;3.22;0.38;;;27.10;42.80;;;;;;5078592;28;20812;-51
2022/08/22 07:53:30;;;;;;;2.78;0.50;;;27.10;42.80;;;;;;5076869;28;20052;-50
2022/08/22 07:56:01;;;;;;;4.13;0.40;;;27.20;42.80;;;;;;5067804;28;20053;-49
2022/08/22 07:58:32;;;;;;;0.65;0.20;;;27.20;43.40;;;;;;5067481;28;20041;-51
2022/08/22 08:01:00;;;;;;;1.67;0.22;;;27.20;42.70;;;;;;5067840;28;20040;-49
2022/08/22 08:03:30;;;;;;;2.95;0.10;;;27.20;42.70;;;;;;5067780;28;20051;-52
2022/08/22 08:05:59;;;;;;;3.85;0.20;;;27.20;42.60;;;;;;5067702;28;20045;-49
2022/08/22 08:08:33;;;;;;;6.28;0.73;;;27.20;42.60;;;;;;5067093;28;20044;-51
2022/08/22 08:11:03;;;;;;;1.65;0.38;;;27.20;42.50;;;;;;5071884;28;20040;-52
2022/08/22 08:13:35;;;;;;;4.18;0.20;;;27.20;42.50;;;;;;5067052;28;20045;-50
2022/08/22 08:16:04;;;;;;;1.58;0.38;;;27.20;42.50;;;;;;5067686;28;20503;-52
2022/08/22 08:18:35;;;;;;;3.88;0.60;;;27.20;42.50;;;;;;5067565;28;20044;-54
2022/08/22 08:21:05;;;;;;;5.47;0.40;;;27.30;42.60;;;;;;5073508;28;20028;-52
2022/08/22 08:23:37;;;;;;;0.77;0.20;;;27.30;42.60;;;;;;5087514;28;20129;-52
2022/08/22 08:26:11;;;;;;;5.03;1.00;;;27.30;42.60;;;;;;5087786;28;20044;-51
2022/08/22 08:28:41;;;;;;;1.60;0.20;;;27.30;42.60;;;;;;5087477;28;20510;-57
2022/08/22 08:31:15;;;;;;;1.17;0.15;;;27.30;42.60;;;;;;5066777;28;20096;-50
2022/08/22 08:33:47;;;;;;;0.45;0.10;;;27.40;42.60;;;;;;5067286;28;20072;-50
2022/08/22 08:36:32;;;;;;;2.92;0.88;;;27.40;42.60;;;;;;5049331;28;20049;-53
2022/08/22 08:39:11;;;;;;;5.07;0.10;;;27.40;42.50;;;;;;5066763;28;20123;-49
2022/08/22 08:41:59;;;;;;;1.63;0.10;;;27.40;42.50;;;;;;5071984;28;20044;-52
2022/08/22 08:44:48;;;;;;;5.20;0.20;;;27.50;42.50;;;;;;5066721;28;20087;-54
2022/08/22 08:47:42;;;;;;;1.27;0.20;;;27.50;42.50;;;;;;5068707;28;20040;-49
2022/08/22 08:50:27;;;;;;;0.80;0.20;;;27.50;42.50;;;;;;5078885;28;20052;-49
2022/08/22 08:53:17;;;;;;;1.55;0.30;;;27.50;42.50;;;;;;5072849;28;20052;-52
2022/08/22 08:55:49;;;;;;;2.53;0.20;;;27.50;42.40;;;;;;5083689;28;20071;-51
2022/08/22 08:58:42;;;;;;;1.08;0.10;;;27.50;42.40;;;;;;5087074;28;20606;-49
2022/08/22 09:01:30;;;;;;;2.17;0.28;;;27.60;42.40;;;;;;5085084;28;20123;-53
2022/08/22 09:04:33;;;;;;;0.55;0.50;;;27.60;42.40;;;;;;5081211;28;20040;-52
2022/08/22 09:07:42;;;;;;;5.75;0.20;;;27.60;42.30;;;;;;5087604;28;20221;-50
2022/08/22 09:10:22;;;;;;;0.63;0.10;;;27.60;42.30;;;;;;4971882;28;20062;-53
2022/08/22 09:13:21;;;;;;;1.55;0.40;;;27.60;42.30;;;;;;5003625;28;20042;-50
2022/08/22 09:16:07;;;;;;;1.48;0.65;;;27.70;42.30;;;;;;5004527;28;20056;-50
2022/08/22 09:18:54;;;;;;;0.20;0.10;;;27.70;42.30;;;;;;5004650;28;20053;-49
2022/08/22 09:22:06;;;;;;;2.70;0.20;;;27.70;42.20;;;;;;5004427;28;20093;-49
2022/08/22 09:24:59;;;;;;;2.08;0.10;;;27.70;42.20;;;;;;4993560;28;20494;-49
2022/08/22 09:27:33;;;;;;;2.13;0.35;;;27.70;42.20;;;;;;4999028;28;20061;-50
2022/08/22 09:30:07;;;;;;;0.70;0.30;;;27.70;42.80;;;;;;4988840;28;20515;-51
2022/08/22 09:32:45;;;;;;;2.92;0.10;;;27.70;42.20;;;;;;5002502;28;20050;-49
2022/08/22 09:35:23;;;;;;;2.42;0.10;;;27.70;42.10;;;;;;5008111;28;20660;-53
2022/08/22 09:38:05;;;;;;;2.97;0.40;;;27.70;42.10;;;;;;5007832;28;20293;-48
2022/08/22 09:40:40;;;;;;;0.63;0.10;;;27.80;42.20;;;;;;5007878;28;20038;-52
2022/08/22 09:43:13;;;;;;;1.50;0.20;;;27.70;42.00;;;;;;5008030;28;20116;-50
2022/08/22 09:45:47;;;;;;;1.40;0.38;;;27.80;42.10;;;;;;5007762;28;20898;-48
2022/08/22 09:48:30;;;;;;;0.82;0.10;;;27.80;42.10;;;;;;5043813;28;20098;-52
2022/08/22 09:51:13;;;;;;;2.38;0.30;;;27.80;42.10;;;;;;5070556;28;20430;-49
2022/08/22 09:53:58;;;;;;;1.42;0.43;;;27.80;42.10;;;;;;5081701;28;20043;-50
2022/08/22 09:56:36;;;;;;;0.77;0.20;;;27.80;42.00;;;;;;5090848;28;20143;-53
2022/08/22 09:59:07;;;;;;;1.75;0.10;;;27.80;42.00;;;;;;5090156;28;20407;-53
2022/08/22 10:01:43;;;;;;;0.10;0.10;;;27.80;42.00;;;;;;5089625;28;20048;-51
2022/08/22 10:04:37;;;;;;;1.10;0.20;;;27.80;42.00;;;;;;5087838;28;20067;-53
2022/08/22 10:07:13;;;;;;;1.08;0.22;;;27.90;42.00;;;;;;5049933;28;20056;-52
2022/08/22 10:09:45;;;;;;;;;;;27.80;42.00;;;;;;5047870;28;20063;-50
2022/08/22 10:12:18;;;;;;;0.82;0.10;;;27.80;42.00;;;;;;5070304;28;19920;-54
2022/08/22 10:15:02;;;;;;;1.85;0.10;;;27.80;42.00;;;;;;5070079;28;20781;-52
2022/08/22 10:17:35;;;;;;;1.60;0.10;;;27.80;41.90;;;;;;5069854;28;20048;-53
2022/08/22 10:20:18;;;;;;;2.17;0.22;;;27.80;41.90;;;;;;5069754;28;20047;-52
2022/08/22 10:22:55;;;;;;;1.00;0.10;;;27.90;42.00;;;;;;5070103;28;20135;-52
2022/08/22 10:25:33;;;;;;;0.45;0.10;;;27.90;41.90;;;;;;5069969;28;20479;-53
2022/08/22 10:28:14;;;;;;;1.05;0.10;;;27.90;41.90;;;;;;5069928;28;20040;-53
2022/08/22 10:30:49;;;;;;;0.63;0.17;;;27.90;41.90;;;;;;5069686;28;20105;-53
2022/08/22 10:33:26;;;;;;;0.32;0.10;;;27.90;41.90;;;;;;5069638;28;20048;-51
2022/08/22 10:36:03;;;;;;;2.65;0.40;;;27.90;41.90;;;;;;5095918;28;20085;-49
2022/08/22 10:38:35;;;;;;;2.08;0.20;;;28.00;42.00;;;;;;5099608;28;20164;-49
2022/08/22 10:41:08;;;;;;;1.20;0.70;;;28.00;42.00;;;;;;5089503;28;20040;-50
2022/08/22 10:43:46;;;;;;;1.58;0.17;;;28.00;42.00;;;;;;5089148;28;20520;-51
2022/08/22 10:46:16;;;;;;;0.45;0.20;;;28.00;42.00;;;;;;5089458;28;20040;-51
2022/08/22 10:48:47;;;;;;;0.68;0.47;;;28.00;41.90;;;;;;5089780;28;20044;-53
2022/08/22 10:51:33;;;;;;;0.35;0.08;;;28.00;41.90;;;;;;5089813;28;20099;-50
2022/08/22 10:54:33;;;;;;;;;;;28.00;41.90;;;;;;5101748;28;20113;-52
2022/08/22 10:57:11;;;;;;;4.03;0.55;;;28.00;41.90;;;;;;4997800;28;20066;-50
2022/08/22 10:59:44;;;;;;;0.60;0.10;;;28.00;42.00;;;;;;4967897;28;20455;-51
2022/08/22 11:02:36;;;;;;;0.60;0.30;;;28.10;42.00;;;;;;4991947;28;20045;-50
2022/08/22 11:05:25;;;;;;;1.88;0.10;;;28.10;42.00;;;;;;4979755;28;20096;-49
2022/08/22 11:08:05;;;;;;;1.35;0.10;;;28.10;41.90;;;;;;4988799;28;20050;-49
2022/08/22 11:10:43;;;;;;;0.20;0.10;;;28.10;42.00;;;;;;4986725;28;20046;-51
2022/08/22 11:13:20;;;;;;;0.20;0.10;;;28.10;42.00;;;;;;4989018;28;20050;-50
2022/08/22 11:15:57;;;;;;;0.85;0.10;;;28.10;41.90;;;;;;4967459;28;20046;-49
2022/08/22 11:18:35;;;;;;;0.35;0.10;;;28.20;42.00;;;;;;4980422;28;20061;-49
2022/08/22 11:21:05;;;;;;;0.30;0.00;;;28.20;42.00;;;;;;4986682;28;20137;-50
2022/08/22 11:23:43;;;;;;;0.20;0.10;;;28.20;42.00;;;;;;4986781;28;20567;-51
2022/08/22 11:26:30;;;;;;;0.20;0.03;;;28.20;41.90;;;;;;4986883;28;20507;-50
2022/08/22 11:29:11;;;;;;;0.25;0.03;;;28.30;42.00;;;;;;5078782;28;20036;-49
2022/08/22 11:31:49;;;;;;;0.43;0.43;;;28.30;42.00;;;;;;5100190;28;20442;-50
2022/08/22 11:34:30;;;;;;;0.38;0.10;;;28.30;42.00;;;;;;5088362;28;20048;-49
2022/08/22 11:37:05;;;;;;;1.95;0.15;;;28.30;41.90;;;;;;5068583;28;20052;-49
2022/08/22 11:39:40;;;;;;;1.02;0.10;;;28.40;42.00;;;;;;5084605;28;20036;-51
2022/08/22 11:42:14;;;;;;;0.43;0.00;;;28.30;42.00;;;;;;5088573;28;20036;-51
2022/08/22 11:44:46;;;;;;;2.20;0.10;;;28.40;42.00;;;;;;5108349;28;20039;-49
2022/08/22 11:47:17;;;;;;;0.25;0.10;;;28.40;42.00;;;;;;5104839;28;20067;-49
2022/08/22 11:49:52;;;;;;;0.35;0.00;;;28.40;41.90;;;;;;5088125;28;20464;-49
2022/08/22 11:52:30;;;;;;;0.40;0.10;;;28.40;41.90;;;;;;5088514;28;20066;-50
2022/08/22 11:55:30;;;;;;;0.10;0.10;;;28.50;41.90;;;;;;5107208;28;20039;-52
2022/08/22 11:58:08;;;;;;;0.68;0.00;;;28.50;41.90;;;;;;5095836;28;20047;-51
2022/08/22 12:00:47;;;;;;;1.35;0.10;;;28.40;41.90;;;;;;5090264;28;20051;-48
2022/08/22 12:03:43;;;;;;;0.13;0.10;;;28.50;41.90;;;;;;5092383;28;20048;-49
2022/08/22 12:06:34;;;;;;;0.43;0.03;;;28.50;41.80;;;;;;5087918;28;20044;-48
2022/08/22 12:09:22;;;;;;;0.30;0.10;;;28.50;41.90;;;;;;5087930;28;20396;-50
2022/08/22 12:12:18;;;;;;;0.40;0.00;;;28.50;41.90;;;;;;5087864;28;20054;-51
2022/08/22 12:14:53;;;;;;;0.25;0.03;;;28.60;42.00;;;;;;5081380;28;20055;-51
2022/08/22 12:17:41;;;;;;;0.47;0.10;;;28.60;42.00;;;;;;5069760;28;20168;-53
2022/08/22 12:20:22;;;;;;;1.05;0.10;;;28.60;42.00;;;;;;5088313;28;20092;-53
2022/08/22 12:23:08;;;;;;;0.22;0.00;;;28.60;42.00;;;;;;5088473;28;20292;-53
2022/08/22 12:25:57;;;;;;;0.32;0.10;;;28.70;42.00;;;;;;5088425;28;20040;-52
2022/08/22 12:28:36;;;;;;;0.73;0.10;;;28.70;42.00;;;;;;5095917;28;20039;-53
2022/08/22 12:31:12;;;;;;;0.13;0.10;;;28.60;41.90;;;;;;5108181;28;20105;-49
2022/08/22 12:34:02;;;;;;;0.10;0.10;;;28.70;41.90;;;;;;5092538;28;20044;-51
2022/08/22 12:36:53;;;;;;;0.75;0.10;;;28.70;41.90;;;;;;5087742;28;20476;-50
2022/08/22 12:39:41;;;;;;;0.08;0.00;;;28.70;41.80;;;;;;5079810;28;20156;-49
2022/08/22 12:42:24;;;;;;;0.90;0.10;;;28.70;41.90;;;;;;5093303;28;20044;-53
2022/08/22 12:45:18;;;;;;;2.25;0.10;;;28.70;41.80;;;;;;5087394;28;20556;-50
2022/08/22 12:47:53;;;;;;;0.63;0.03;;;28.70;41.80;;;;;;5024987;28;20150;-51
2022/08/22 12:50:32;;;;;;;0.03;0.03;;;28.80;41.90;;;;;;5024745;28;20096;-50
2022/08/22 12:53:22;;;;;;;0.75;0.10;;;28.80;41.90;;;;;;5024888;28;20112;-50
2022/08/22 12:56:03;;;;;;;0.20;0.00;;;28.80;41.90;;;;;;5024944;28;20599;-50
2022/08/22 12:58:45;;;;;;;1.00;0.00;;;28.80;41.90;;;;;;5024486;28;20671;-51
2022/08/22 13:01:15;;;;;;;0.77;0.15;;;28.80;41.80;;;;;;5026227;28;20046;-49
2022/08/22 13:03:46;;;;;;;0.38;0.28;;;28.80;41.80;;;;;;5027993;28;20073;-50
2022/08/22 13:06:46;;;;;;;1.60;0.05;;;28.90;41.90;;;;;;5029035;28;20065;-51
2022/08/22 13:09:18;;;;;;;1.33;0.00;;;28.90;41.80;;;;;;5028636;28;20115;-50
2022/08/22 13:11:48;;;;;;;1.23;0.75;;;28.90;41.90;;;;;;5028668;28;20045;-53
2022/08/22 13:14:21;;;;;;;0.00;0.00;;;28.90;41.90;;;;;;5028287;28;20050;-50
2022/08/22 13:16:54;;;;;;;0.32;0.00;;;29.00;41.90;;;;;;5028981;28;20045;-52
2022/08/22 13:19:25;;;;;;;0.73;0.00;;;29.00;42.00;;;;;;5023496;28;20045;-48
2022/08/22 13:21:58;;;;;;;0.10;0.00;;;29.00;41.90;;;;;;5028840;28;20049;-49
2022/08/22 13:24:35;;;;;;;0.10;0.00;;;29.00;41.90;;;;;;5045037;28;20044;-50
2022/08/22 13:27:08;;;;;;;0.28;0.00;;;29.00;41.90;;;;;;5091565;28;20106;-49
2022/08/22 13:29:41;;;;;;;0.10;0.00;;;29.00;41.90;;;;;;5086665;28;20139;-49
2022/08/22 13:32:21;;;;;;;0.10;0.00;;;29.00;41.90;;;;;;5093411;28;20199;-48
2022/08/22 13:34:52;;;;;;;0.35;0.00;;;29.10;41.90;;;;;;5093160;28;20670;-51
2022/08/22 13:37:25;;;;;;;0.15;0.00;;;29.10;41.90;;;;;;5111730;28;20564;-50
2022/08/22 13:39:57;;;;;;;0.10;0.00;;;29.10;41.90;;;;;;5110408;28;20039;-53
2022/08/22 13:42:27;;;;;;;0.35;0.00;;;29.10;41.90;;;;;;5073132;28;20526;-52
2022/08/22 13:44:56;;;;;;;0.00;0.00;;;29.10;41.90;;;;;;5090561;28;20091;-49
2022/08/22 13:47:27;;;;;;;0.57;0.20;;;29.10;41.90;;;;;;5099993;28;20044;-49
2022/08/22 13:50:04;;;;;;;0.65;0.00;;;29.10;41.90;;;;;;5077682;28;20036;-50
2022/08/22 13:52:35;;;;;;;1.55;0.00;;;29.20;41.90;;;;;;5090912;28;20079;-48
2022/08/22 13:55:08;;;;;;;1.02;0.10;;;29.20;41.90;;;;;;5090604;28;20043;-49